createdAt,value
2018-05-26T00:01:05.085Z,18.30
2018-05-26T00:03:32.526Z,18.30
2018-05-26T00:05:59.974Z,18.30
2018-05-26T00:08:27.470Z,18.30
2018-05-26T00:10:56.619Z,18.20
2018-05-26T00:13:24.071Z,18.20
2018-05-26T00:15:51.535Z,18.20
2018-05-26T00:18:19.741Z,18.10
2018-05-26T00:20:47.182Z,18.00
2018-05-26T00:23:14.623Z,18.00
2018-05-26T00:25:42.066Z,18.00
2018-05-26T00:28:09.526Z,18.00
2018-05-26T00:30:36.975Z,17.90
2018-05-26T00:33:04.431Z,17.90
2018-05-26T00:35:31.876Z,17.90
2018-05-26T00:37:59.317Z,17.90
2018-05-26T00:40:26.753Z,17.80
2018-05-26T00:42:54.205Z,17.50
2018-05-26T00:45:22.423Z,17.40
2018-05-26T00:47:49.878Z,17.40
2018-05-26T00:50:17.333Z,17.40
2018-05-26T00:52:44.794Z,17.50
2018-05-26T00:55:12.248Z,17.40
2018-05-26T00:57:39.678Z,17.40
2018-05-26T01:00:07.896Z,17.30
2018-05-26T01:02:35.341Z,17.30
2018-05-26T01:05:02.779Z,17.10
2018-05-26T01:07:30.231Z,16.90
2018-05-26T01:09:57.705Z,16.90
2018-05-26T01:12:25.158Z,17.00
2018-05-26T01:14:52.598Z,16.90
2018-05-26T01:17:20.837Z,16.70
2018-05-26T01:19:48.285Z,16.70
2018-05-26T01:22:15.742Z,16.70
2018-05-26T01:24:43.210Z,16.60
2018-05-26T01:27:11.426Z,16.50
2018-05-26T01:29:39.780Z,16.50
2018-05-26T01:32:07.243Z,16.50
2018-05-26T01:34:34.683Z,16.50
2018-05-26T01:37:02.141Z,16.70
2018-05-26T01:39:30.367Z,16.80
2018-05-26T01:41:57.825Z,16.80
2018-05-26T01:44:25.282Z,16.80
2018-05-26T01:46:52.735Z,16.90
2018-05-26T01:49:20.951Z,16.90
2018-05-26T01:51:48.402Z,16.90
2018-05-26T01:54:15.858Z,16.70
2018-05-26T01:56:43.304Z,16.50
2018-05-26T01:59:10.746Z,16.40
2018-05-26T02:01:38.194Z,16.50
2018-05-26T02:04:05.652Z,16.60
2018-05-26T02:06:33.864Z,16.50
2018-05-26T02:09:01.319Z,16.50
2018-05-26T02:11:28.775Z,16.50
2018-05-26T02:13:56.236Z,16.50
2018-05-26T02:16:24.454Z,16.60
2018-05-26T02:18:51.904Z,16.60
2018-05-26T02:21:19.348Z,16.50
2018-05-26T02:23:46.811Z,16.40
2018-05-26T02:26:14.263Z,16.50
2018-05-26T02:28:41.722Z,16.50
2018-05-26T02:31:09.934Z,16.60
2018-05-26T02:33:37.678Z,16.60
2018-05-26T02:36:05.148Z,16.50
2018-05-26T02:38:32.604Z,16.30
2018-05-26T02:41:00.061Z,16.20
2018-05-26T02:43:28.286Z,16.40
2018-05-26T02:45:55.736Z,16.30
2018-05-26T02:48:23.197Z,16.40
2018-05-26T02:50:50.630Z,16.50
2018-05-26T02:53:18.078Z,16.50
2018-05-26T02:55:45.536Z,16.40
2018-05-26T02:58:13.771Z,16.20
2018-05-26T03:00:41.208Z,16.20
2018-05-26T03:03:08.646Z,16.30
2018-05-26T03:05:41.745Z,16.30
2018-05-26T03:08:14.929Z,16.30
2018-05-26T03:10:48.059Z,16.40
2018-05-26T03:13:21.325Z,16.40
2018-05-26T03:15:57.370Z,16.40
2018-05-26T03:18:24.830Z,16.30
2018-05-26T03:20:52.277Z,16.40
2018-05-26T03:23:19.726Z,16.30
2018-05-26T03:25:47.191Z,16.30
2018-05-26T03:28:14.630Z,16.30
2018-05-26T03:30:42.094Z,16.20
2018-05-26T03:33:10.400Z,16.20
2018-05-26T03:35:37.842Z,16.20
2018-05-26T03:38:05.298Z,16.20
2018-05-26T03:40:32.759Z,16.10
2018-05-26T03:43:00.201Z,16.10
2018-05-26T03:45:27.843Z,16.10
2018-05-26T03:47:55.285Z,16.10
2018-05-26T03:50:22.741Z,16.10
2018-05-26T03:52:50.183Z,16.10
2018-05-26T03:55:38.222Z,16.00
2018-05-26T03:58:18.500Z,16.00
2018-05-26T04:00:45.956Z,16.00
2018-05-26T04:03:13.398Z,16.10
2018-05-26T04:05:40.837Z,16.10
2018-05-26T04:08:08.279Z,16.10
2018-05-26T04:10:35.737Z,16.00
2018-05-26T04:13:04.000Z,16.10
2018-05-26T04:15:31.450Z,16.00
2018-05-26T04:17:58.901Z,16.00
2018-05-26T04:20:26.345Z,16.00
2018-05-26T04:22:53.817Z,16.10
2018-05-26T04:25:21.277Z,15.90
2018-05-26T04:27:48.746Z,15.90
2018-05-26T04:30:16.207Z,16.00
2018-05-26T04:32:43.669Z,16.00
2018-05-26T04:35:11.134Z,16.00
2018-05-26T04:37:39.365Z,16.10
2018-05-26T04:40:06.824Z,16.10
2018-05-26T04:42:35.046Z,16.30
2018-05-26T04:45:02.483Z,16.30
2018-05-26T04:47:29.941Z,16.40
2018-05-26T04:49:57.397Z,16.40
2018-05-26T04:52:24.858Z,16.50
2018-05-26T04:54:53.094Z,16.70
2018-05-26T04:57:20.543Z,16.60
2018-05-26T04:59:47.973Z,16.70
2018-05-26T05:02:15.417Z,16.70
2018-05-26T05:04:42.866Z,16.80
2018-05-26T05:07:10.330Z,16.90
2018-05-26T05:09:37.770Z,17.10
2018-05-26T05:12:06.010Z,17.30
2018-05-26T05:14:33.450Z,17.30
2018-05-26T05:17:01.012Z,17.60
2018-05-26T05:19:28.413Z,17.70
2018-05-26T05:21:56.667Z,17.80
2018-05-26T05:24:24.186Z,18.00
2018-05-26T05:26:51.714Z,18.30
2018-05-26T05:29:19.078Z,18.60
2018-05-26T05:31:46.523Z,18.90
2018-05-26T05:34:13.978Z,19.20
2018-05-26T05:36:41.422Z,19.60
2018-05-26T05:39:08.884Z,20.10
2018-05-26T05:41:36.330Z,20.30
2018-05-26T05:44:03.785Z,20.50
2018-05-26T05:46:31.242Z,20.90
2018-05-26T05:48:58.682Z,21.10
2018-05-26T05:51:26.137Z,21.20
2018-05-26T05:53:54.354Z,21.10
2018-05-26T05:56:21.888Z,21.10
2018-05-26T05:58:49.282Z,21.40
2018-05-26T06:01:16.734Z,21.70
2018-05-26T06:03:44.190Z,21.90
2018-05-26T06:06:12.387Z,22.80
2018-05-26T06:08:39.875Z,22.70
2018-05-26T06:11:07.313Z,23.10
2018-05-26T06:13:34.769Z,23.30
2018-05-26T06:16:02.985Z,23.50
2018-05-26T06:18:30.444Z,23.50
2018-05-26T06:20:57.912Z,24.00
2018-05-26T06:23:26.117Z,23.80
2018-05-26T06:25:53.566Z,23.80
2018-05-26T06:28:21.112Z,23.80
2018-05-26T06:30:48.552Z,23.90
2018-05-26T06:33:16.021Z,24.20
2018-05-26T06:35:43.497Z,24.30
2018-05-26T06:38:10.948Z,24.30
2018-05-26T06:40:39.133Z,24.80
2018-05-26T06:43:06.587Z,24.80
2018-05-26T06:45:34.085Z,24.40
2018-05-26T06:48:01.541Z,24.10
2018-05-26T06:50:28.983Z,24.00
2018-05-26T06:52:56.425Z,23.90
2018-05-26T06:55:23.865Z,23.70
2018-05-26T06:57:51.317Z,23.40
2018-05-26T07:00:18.799Z,23.30
2018-05-26T07:02:46.605Z,22.70
2018-05-26T07:05:14.805Z,22.30
2018-05-26T07:07:42.270Z,22.30
2018-05-26T07:10:09.745Z,22.40
2018-05-26T07:12:37.186Z,22.80
2018-05-26T07:15:05.415Z,23.60
2018-05-26T07:17:32.866Z,23.60
2018-05-26T07:20:00.305Z,23.30
2018-05-26T07:22:27.758Z,23.20
2018-05-26T07:24:55.197Z,23.60
2018-05-26T07:27:22.658Z,23.50
2018-05-26T07:29:50.873Z,23.40
2018-05-26T07:32:18.306Z,23.40
2018-05-26T07:34:45.750Z,23.10
2018-05-26T07:37:13.250Z,23.10
2018-05-26T07:39:41.465Z,22.00
2018-05-26T07:42:08.922Z,21.90
2018-05-26T07:44:36.373Z,22.70
2018-05-26T07:47:03.839Z,23.30
2018-05-26T07:49:32.046Z,22.70
2018-05-26T07:51:59.523Z,22.70
2018-05-26T07:54:26.957Z,22.90
2018-05-26T07:56:54.411Z,23.30
2018-05-26T07:59:21.859Z,23.80
2018-05-26T08:01:50.093Z,24.10
2018-05-26T08:04:17.539Z,24.10
2018-05-26T08:06:44.982Z,24.10
2018-05-26T08:09:12.923Z,24.30
2018-05-26T08:11:40.371Z,24.20
2018-05-26T08:14:07.830Z,24.20
2018-05-26T08:16:35.272Z,23.80
2018-05-26T08:19:02.725Z,24.10
2018-05-26T08:21:30.164Z,24.50
2018-05-26T08:23:57.664Z,24.70
2018-05-26T08:26:25.103Z,25.30
2018-05-26T08:28:52.559Z,25.10
2018-05-26T08:31:20.015Z,24.90
2018-05-26T08:33:47.549Z,24.50
2018-05-26T08:36:14.918Z,25.20
2018-05-26T08:38:42.364Z,25.70
2018-05-26T08:41:09.820Z,25.70
2018-05-26T08:43:37.262Z,25.90
2018-05-26T08:46:05.490Z,26.20
2018-05-26T08:48:32.947Z,26.20
2018-05-26T08:51:00.398Z,25.60
2018-05-26T08:53:27.855Z,25.60
2018-05-26T08:55:56.071Z,26.40
2018-05-26T08:58:23.518Z,26.40
2018-05-26T09:00:50.978Z,26.60
2018-05-26T09:03:18.450Z,27.10
2018-05-26T09:05:46.683Z,26.50
2018-05-26T09:08:14.141Z,26.50
2018-05-26T09:10:41.595Z,26.90
2018-05-26T09:13:09.819Z,27.40
2018-05-26T09:15:37.262Z,27.40
2018-05-26T09:18:04.724Z,27.30
2018-05-26T09:20:32.190Z,27.50
2018-05-26T09:23:00.398Z,27.40
2018-05-26T09:25:27.900Z,27.40
2018-05-26T09:27:55.304Z,27.30
2018-05-26T09:30:22.747Z,27.20
2018-05-26T09:32:50.203Z,26.70
2018-05-26T09:35:17.634Z,26.40
2018-05-26T09:37:45.082Z,27.00
2018-05-26T09:40:12.591Z,27.20
2018-05-26T09:42:40.019Z,26.50
2018-05-26T09:45:07.507Z,26.90
2018-05-26T09:47:34.947Z,27.70
2018-05-26T09:50:02.386Z,27.30
2018-05-26T09:52:29.838Z,27.80
2018-05-26T09:54:57.313Z,27.40
2018-05-26T09:57:25.515Z,27.10
2018-05-26T09:59:52.946Z,27.10
2018-05-26T10:02:20.381Z,26.90
2018-05-26T10:04:47.829Z,27.00
2018-05-26T10:07:15.283Z,27.40
2018-05-26T10:09:42.736Z,28.10
2018-05-26T10:12:10.158Z,27.60
2018-05-26T10:14:37.590Z,27.40
2018-05-26T10:17:05.026Z,27.80
2018-05-26T10:19:32.466Z,27.90
2018-05-26T10:21:59.923Z,27.40
2018-05-26T10:24:27.382Z,27.10
2018-05-26T10:26:54.812Z,26.80
2018-05-26T10:29:22.256Z,26.80
2018-05-26T10:31:50.123Z,27.20
2018-05-26T10:34:17.985Z,27.40
2018-05-26T10:36:45.413Z,27.50
2018-05-26T10:39:12.872Z,27.30
2018-05-26T10:41:40.318Z,27.40
2018-05-26T10:44:07.790Z,27.40
2018-05-26T10:46:35.982Z,27.30
2018-05-26T10:49:03.445Z,27.40
2018-05-26T10:51:30.898Z,27.20
2018-05-26T10:53:58.354Z,26.10
2018-05-26T10:56:25.801Z,26.30
2018-05-26T10:58:53.321Z,26.40
2018-05-26T11:01:20.731Z,26.20
2018-05-26T11:03:48.172Z,25.90
2018-05-26T11:06:15.623Z,25.30
2018-05-26T11:08:43.066Z,25.20
2018-05-26T11:11:10.498Z,24.90
2018-05-26T11:13:37.929Z,25.00
2018-05-26T11:16:06.176Z,24.90
2018-05-26T11:18:34.051Z,24.90
2018-05-26T11:21:02.247Z,25.00
2018-05-26T11:23:29.682Z,25.00
2018-05-26T11:25:57.127Z,25.00
2018-05-26T11:28:24.579Z,25.00
2018-05-26T11:30:52.034Z,24.90
2018-05-26T11:33:19.476Z,25.00
2018-05-26T11:35:46.918Z,24.60
2018-05-26T11:38:14.361Z,24.40
2018-05-26T11:40:41.806Z,24.30
2018-05-26T11:43:09.244Z,24.30
2018-05-26T11:45:36.688Z,24.70
2018-05-26T11:48:04.158Z,24.70
2018-05-26T11:50:31.602Z,24.60
2018-05-26T11:52:59.086Z,24.90
2018-05-26T11:55:26.531Z,24.90
2018-05-26T11:57:53.958Z,25.00
2018-05-26T12:00:21.410Z,25.10
2018-05-26T12:02:48.874Z,25.10
2018-05-26T12:05:16.330Z,24.80
2018-05-26T12:07:43.770Z,24.70
2018-05-26T12:10:11.206Z,24.70
2018-05-26T12:12:38.643Z,24.80
2018-05-26T12:15:06.078Z,25.00
2018-05-26T12:17:33.511Z,25.00
2018-05-26T12:20:00.962Z,25.10
2018-05-26T12:22:28.409Z,25.00
2018-05-26T12:24:55.866Z,25.10
2018-05-26T12:27:23.347Z,24.80
2018-05-26T12:29:50.742Z,24.80
2018-05-26T12:32:18.193Z,25.10
2018-05-26T12:34:45.624Z,25.30
2018-05-26T12:37:13.062Z,25.20
2018-05-26T12:39:40.530Z,25.40
2018-05-26T12:42:08.025Z,25.60
2018-05-26T12:44:36.255Z,25.90
2018-05-26T12:47:03.702Z,25.90
2018-05-26T12:49:31.162Z,25.80
2018-05-26T12:51:59.372Z,25.40
2018-05-26T12:54:26.814Z,25.40
2018-05-26T12:56:54.250Z,25.20
2018-05-26T12:59:22.474Z,25.50
2018-05-26T13:01:49.934Z,25.50
2018-05-26T13:04:17.389Z,25.70
2018-05-26T13:06:44.825Z,25.70
2018-05-26T13:09:12.267Z,25.70
2018-05-26T13:11:39.725Z,25.60
2018-05-26T13:14:07.170Z,25.80
2018-05-26T13:16:34.606Z,26.00
2018-05-26T13:19:02.056Z,26.20
2018-05-26T13:21:29.588Z,26.40
2018-05-26T13:23:57.076Z,26.30
2018-05-26T13:26:24.540Z,26.00
2018-05-26T13:28:52.748Z,26.00
2018-05-26T13:31:20.236Z,26.00
2018-05-26T13:33:47.663Z,25.90
2018-05-26T13:36:15.165Z,25.80
2018-05-26T13:38:42.617Z,25.70
2018-05-26T13:41:10.080Z,25.80
2018-05-26T13:43:37.559Z,25.80
2018-05-26T13:46:05.766Z,25.80
2018-05-26T13:48:33.977Z,25.90
2018-05-26T13:51:01.504Z,25.80
2018-05-26T13:53:29.052Z,25.90
2018-05-26T13:55:56.489Z,25.90
2018-05-26T13:58:23.968Z,25.60
2018-05-26T14:00:51.425Z,25.60
2018-05-26T14:03:18.891Z,25.60
2018-05-26T14:05:46.322Z,25.70
2018-05-26T14:08:13.795Z,25.80
2018-05-26T14:10:41.267Z,25.60
2018-05-26T14:13:08.709Z,25.60
2018-05-26T14:15:36.934Z,25.90
2018-05-26T14:18:04.402Z,25.90
2018-05-26T14:20:32.631Z,25.70
2018-05-26T14:23:00.080Z,25.70
2018-05-26T14:28:02.116Z,25.40
2018-05-26T14:30:29.560Z,25.40
2018-05-26T14:32:57.020Z,25.50
2018-05-26T14:35:26.761Z,25.60
2018-05-26T14:37:54.962Z,25.80
2018-05-26T14:40:22.499Z,25.80
2018-05-26T14:42:49.917Z,25.70
2018-05-26T14:45:17.373Z,25.70
2018-05-26T14:47:44.802Z,25.60
2018-05-26T14:50:12.250Z,25.60
2018-05-26T14:52:39.678Z,25.60
2018-05-26T14:55:07.887Z,25.60
2018-05-26T14:57:35.316Z,25.60
2018-05-26T15:00:02.755Z,25.40
2018-05-26T15:02:30.187Z,25.40
2018-05-26T15:04:57.631Z,25.50
2018-05-26T15:07:25.076Z,25.50
2018-05-26T15:09:52.505Z,25.50
2018-05-26T15:12:19.946Z,25.50
2018-05-26T15:14:47.394Z,25.40
2018-05-26T15:17:14.834Z,25.50
2018-05-26T15:19:42.318Z,25.40
2018-05-26T15:22:09.780Z,25.50
2018-05-26T15:24:37.250Z,25.60
2018-05-26T15:27:05.446Z,25.60
2018-05-26T15:29:32.880Z,25.60
2018-05-26T15:32:00.328Z,25.70
2018-05-26T15:34:27.762Z,25.70
2018-05-26T15:36:55.212Z,25.70
2018-05-26T15:39:22.658Z,25.70
2018-05-26T15:41:50.112Z,25.70
2018-05-26T15:44:17.552Z,25.60
2018-05-26T15:46:44.989Z,25.60
2018-05-26T15:49:12.438Z,25.50
2018-05-26T15:51:39.875Z,25.50
2018-05-26T15:54:07.350Z,25.50
2018-05-26T15:56:34.761Z,25.60
2018-05-26T15:59:02.219Z,25.60
2018-05-26T16:01:29.667Z,25.60
2018-05-26T16:03:57.139Z,25.50
2018-05-26T16:06:25.347Z,25.50
2018-05-26T16:08:52.789Z,25.50
2018-05-26T16:11:20.233Z,25.40
2018-05-26T16:13:47.668Z,25.40
2018-05-26T16:16:15.129Z,25.40
2018-05-26T16:18:42.573Z,25.40
2018-05-26T16:21:10.044Z,25.20
2018-05-26T16:23:37.497Z,25.00
2018-05-26T16:26:05.772Z,25.00
2018-05-26T16:28:33.987Z,25.00
2018-05-26T16:31:01.427Z,25.00
2018-05-26T16:33:28.882Z,25.00
2018-05-26T16:35:56.337Z,25.00
2018-05-26T16:38:23.799Z,25.10
2018-05-26T16:40:51.994Z,25.10
2018-05-26T16:43:19.452Z,25.10
2018-05-26T16:45:46.923Z,25.00
2018-05-26T16:48:14.362Z,25.00
2018-05-26T16:50:41.832Z,24.90
2018-05-26T16:53:10.025Z,24.90
2018-05-26T16:55:37.466Z,24.80
2018-05-26T16:58:04.910Z,24.90
2018-05-26T17:00:32.378Z,25.00
2018-05-26T17:02:59.835Z,25.00
2018-05-26T17:05:27.278Z,24.80
2018-05-26T17:07:54.730Z,24.80
2018-05-26T17:10:22.212Z,24.70
2018-05-26T17:12:49.643Z,24.70
2018-05-26T17:15:17.527Z,24.70
2018-05-26T17:17:44.979Z,24.70
2018-05-26T17:20:12.442Z,24.70
2018-05-26T17:22:40.622Z,24.60
2018-05-26T17:25:08.659Z,24.60
2018-05-26T17:27:36.116Z,24.60
2018-05-26T17:30:03.569Z,24.60
2018-05-26T17:32:31.778Z,24.60
2018-05-26T17:34:59.242Z,24.60
2018-05-26T17:37:26.687Z,24.60
2018-05-26T17:39:54.169Z,24.50
2018-05-26T17:42:21.616Z,24.50
2018-05-26T17:44:49.065Z,24.50
2018-05-26T17:47:16.509Z,24.50
2018-05-26T17:49:43.954Z,24.40
2018-05-26T17:52:11.424Z,24.30
2018-05-26T17:54:38.868Z,24.40
2018-05-26T17:57:06.323Z,24.40
2018-05-26T17:59:33.764Z,24.40
2018-05-26T18:02:01.218Z,24.50
2018-05-26T18:04:28.662Z,24.50
2018-05-26T18:06:56.120Z,24.50
2018-05-26T18:09:23.559Z,24.40
2018-05-26T18:11:51.004Z,24.50
2018-05-26T18:14:18.438Z,24.40
2018-05-26T18:16:45.881Z,24.40
2018-05-26T18:19:13.318Z,24.40
2018-05-26T18:21:40.787Z,24.30
2018-05-26T18:24:08.986Z,24.10
2018-05-26T18:26:36.446Z,24.10
2018-05-26T18:29:03.880Z,24.10
2018-05-26T18:31:31.322Z,24.20
2018-05-26T18:33:58.791Z,24.20
2018-05-26T18:36:26.243Z,24.00
2018-05-26T18:38:53.695Z,24.00
2018-05-26T18:41:21.185Z,24.00
2018-05-26T18:43:48.622Z,23.80
2018-05-26T18:46:16.071Z,23.80
2018-05-26T18:48:43.519Z,23.70
2018-05-26T18:51:10.938Z,23.60
2018-05-26T18:53:38.375Z,23.60
2018-05-26T18:56:05.821Z,23.60
2018-05-26T18:58:33.274Z,23.50
2018-05-26T19:01:00.730Z,23.50
2018-05-26T19:03:28.173Z,23.50
2018-05-26T19:05:55.629Z,23.40
2018-05-26T19:08:23.049Z,23.50
2018-05-26T19:10:50.479Z,23.50
2018-05-26T19:13:17.942Z,23.60
2018-05-26T19:15:45.422Z,23.50
2018-05-26T19:18:12.864Z,23.60
2018-05-26T19:20:40.298Z,23.60
2018-05-26T19:23:07.728Z,23.60
2018-05-26T19:25:35.166Z,23.50
2018-05-26T19:28:02.642Z,23.50
2018-05-26T19:30:30.080Z,23.50
2018-05-26T19:32:57.518Z,23.40
2018-05-26T19:35:24.983Z,23.40
2018-05-26T19:37:53.210Z,23.30
2018-05-26T19:40:20.656Z,23.30
2018-05-26T19:42:48.731Z,23.30
2018-05-26T19:45:16.190Z,23.20
2018-05-26T19:47:43.669Z,23.10
2018-05-26T19:50:11.126Z,23.10
2018-05-26T19:52:38.554Z,23.00
2018-05-26T19:55:06.009Z,23.00
2018-05-26T19:57:33.469Z,22.90
2018-05-26T20:00:00.924Z,22.90
2018-05-26T20:02:28.381Z,22.80
2018-05-26T20:04:55.814Z,22.80
2018-05-26T20:07:23.281Z,22.80
2018-05-26T20:09:51.490Z,22.60
2018-05-26T20:12:18.958Z,22.60
2018-05-26T20:14:46.406Z,22.50
2018-05-26T20:17:13.851Z,22.40
2018-05-26T20:19:41.309Z,22.30
2018-05-26T20:22:08.808Z,22.30
2018-05-26T20:24:36.275Z,22.30
2018-05-26T20:27:03.726Z,22.20
2018-05-26T20:29:31.185Z,22.10
2018-05-26T20:31:59.387Z,22.00
2018-05-26T20:34:26.850Z,21.90
2018-05-26T20:36:54.286Z,21.90
2018-05-26T20:39:21.724Z,21.80
2018-05-26T20:41:49.182Z,21.70
2018-05-26T20:44:16.637Z,21.80
2018-05-26T20:46:44.094Z,21.70
2018-05-26T20:49:11.559Z,21.60
2018-05-26T20:51:39.788Z,21.50
2018-05-26T20:54:07.218Z,21.50
2018-05-26T20:56:34.714Z,21.50
2018-05-26T20:59:02.146Z,21.50
2018-05-26T21:01:29.590Z,21.40
2018-05-26T21:03:57.086Z,21.30
2018-05-26T21:06:24.549Z,21.30
2018-05-26T21:08:51.991Z,21.20
2018-05-26T21:11:19.450Z,21.10
2018-05-26T21:13:47.721Z,20.90
2018-05-26T21:16:15.930Z,20.90
2018-05-26T21:18:43.389Z,20.90
2018-05-26T21:21:10.873Z,20.80
2018-05-26T21:23:39.078Z,20.70
2018-05-26T21:26:07.404Z,20.70
2018-05-26T21:28:34.856Z,20.60
2018-05-26T21:31:02.315Z,20.70
2018-05-26T21:33:29.770Z,20.60
2018-05-26T21:35:57.209Z,20.70
2018-05-26T21:38:24.657Z,20.70
2018-05-26T21:40:52.126Z,20.70
2018-05-26T21:43:19.583Z,20.70
2018-05-26T21:45:47.799Z,20.70
2018-05-26T21:48:15.241Z,20.70
2018-05-26T21:50:42.687Z,20.60
2018-05-26T21:53:10.142Z,20.50
2018-05-26T21:55:37.580Z,20.50
2018-05-26T21:58:05.045Z,20.40
2018-05-26T22:00:32.479Z,20.40
2018-05-26T22:02:59.921Z,20.30
2018-05-26T22:05:27.358Z,20.30
2018-05-26T22:07:54.819Z,20.30
2018-05-26T22:10:23.022Z,20.40
2018-05-26T22:12:50.470Z,20.30
2018-05-26T22:15:17.912Z,20.40
2018-05-26T22:17:45.362Z,20.20
2018-05-26T22:20:12.798Z,20.10
2018-05-26T22:22:40.252Z,20.00
2018-05-26T22:25:07.699Z,20.00
2018-05-26T22:27:35.155Z,19.90
2018-05-26T22:30:03.357Z,19.70
2018-05-26T22:32:31.607Z,19.70
2018-05-26T22:34:59.806Z,19.70
2018-05-26T22:37:27.260Z,19.60
2018-05-26T22:39:54.702Z,19.70
2018-05-26T22:42:22.158Z,19.70
2018-05-26T22:44:49.607Z,19.70
2018-05-26T22:47:17.064Z,19.70
2018-05-26T22:49:44.522Z,19.60
2018-05-26T22:52:12.729Z,19.50
2018-05-26T22:54:40.187Z,19.50
2018-05-26T22:57:07.670Z,19.40
2018-05-26T22:59:35.119Z,19.40
2018-05-26T23:02:03.354Z,19.40
2018-05-26T23:04:30.819Z,19.40
2018-05-26T23:06:59.111Z,19.30
2018-05-26T23:09:26.547Z,19.20
2018-05-26T23:11:53.994Z,19.10
2018-05-26T23:14:21.451Z,19.00
2018-05-26T23:16:48.908Z,18.90
2018-05-26T23:19:16.369Z,18.80
2018-05-26T23:21:43.827Z,18.90
2018-05-26T23:24:11.283Z,18.90
2018-05-26T23:26:39.494Z,18.90
2018-05-26T23:29:07.099Z,18.80
2018-05-26T23:31:34.418Z,18.80
2018-05-26T23:34:01.883Z,18.90
2018-05-26T23:36:29.344Z,18.90
2018-05-26T23:38:56.786Z,18.90
2018-05-26T23:41:24.251Z,18.90
2018-05-26T23:43:51.693Z,18.90
2018-05-26T23:46:19.174Z,18.90
2018-05-26T23:48:47.081Z,18.80
2018-05-26T23:51:14.536Z,18.70
2018-05-26T23:53:43.046Z,18.60
2018-05-26T23:56:11.241Z,18.50
2018-05-26T23:58:38.706Z,18.40
